Time,TemperatureF,DewpointF,PressureIn,WindDirection,WindDirectionDegrees,WindSpeedMPH,WindSpeedGustMPH,Humidity,HourlyPrecipIn,Conditions,Clouds,dailyrainin,SoftwareType,DateUTC
2013-06-06 00:04:00,80.5,64.0,29.69,South,182,0.0,2.0,57,0.00,,,0.00,weatherlink.com 1.10,2013-06-06 05:04:00,
2013-06-06 00:19:00,80.0,64.0,29.68,South,182,2.0,4.0,59,0.00,,,0.00,weatherlink.com 1.10,2013-06-06 05:19:00,
2013-06-06 00:34:00,79.4,64.0,29.68,South,182,1.0,3.0,60,0.00,,,0.00,weatherlink.com 1.10,2013-06-06 05:34:00,
2013-06-06 00:49:00,79.3,65.0,29.69,South,182,1.0,6.0,61,0.00,,,0.00,weatherlink.com 1.10,2013-06-06 05:49:00,
2013-06-06 01:04:00,79.6,65.0,29.68,South,182,4.0,7.0,62,0.00,,,0.00,weatherlink.com 1.10,2013-06-06 06:04:00,
2013-06-06 01:19:00,79.2,65.0,29.70,South,182,0.0,1.0,62,0.00,,,0.00,weatherlink.com 1.10,2013-06-06 06:19:00,
2013-06-06 01:34:00,78.5,65.0,29.71,South,182,2.0,2.0,64,0.00,,,0.00,weatherlink.com 1.10,2013-06-06 06:34:00,
2013-06-06 01:49:00,77.4,65.0,29.71,South,182,0.0,3.0,65,0.00,,,0.00,weatherlink.com 1.10,2013-06-06 06:49:00,
2013-06-06 02:04:00,76.1,65.0,29.70,South,182,1.0,3.0,68,0.00,,,0.00,weatherlink.com 1.10,2013-06-06 07:04:00,
2013-06-06 02:19:00,75.9,65.0,29.70,South,182,2.0,3.0,69,0.00,,,0.00,weatherlink.com 1.10,2013-06-06 07:19:00,
2013-06-06 02:34:00,75.8,66.0,29.70,South,182,0.0,5.0,71,0.00,,,0.00,weatherlink.com 1.10,2013-06-06 07:34:00,
2013-06-06 02:49:00,76.2,67.0,29.69,South,182,1.0,5.0,73,0.00,,,0.00,weatherlink.com 1.10,2013-06-06 07:49:00,
2013-06-06 03:04:00,76.0,67.0,29.69,South,182,2.0,3.0,74,0.00,,,0.00,weatherlink.com 1.10,2013-06-06 08:04:00,
2013-06-06 03:19:00,75.8,67.0,29.71,South,182,0.0,2.0,74,0.00,,,0.00,weatherlink.com 1.10,2013-06-06 08:19:00,
2013-06-06 03:34:00,75.3,67.0,29.73,South,182,0.0,1.0,75,0.00,,,0.00,weatherlink.com 1.10,2013-06-06 08:34:00,
2013-06-06 03:49:00,74.5,67.0,29.74,South,182,2.0,5.0,76,0.00,,,0.00,weatherlink.com 1.10,2013-06-06 08:49:00,
2013-06-06 04:04:00,74.7,67.0,29.76,South,182,2.0,3.0,76,0.00,,,0.00,weatherlink.com 1.10,2013-06-06 09:04:00,
2013-06-06 04:19:00,74.7,66.0,29.77,North,11,2.0,6.0,75,0.00,,,0.00,weatherlink.com 1.10,2013-06-06 09:19:00,
2013-06-06 04:34:00,75.2,66.0,29.76,North,11,2.0,5.0,74,0.00,,,0.00,weatherlink.com 1.10,2013-06-06 09:34:00,
2013-06-06 04:49:00,76.1,64.0,29.75,North,9,0.0,7.0,66,0.00,,,0.00,weatherlink.com 1.10,2013-06-06 09:49:00,
2013-06-06 05:04:00,76.4,60.0,29.75,North,9,1.0,7.0,58,0.00,,,0.00,weatherlink.com 1.10,2013-06-06 10:04:00,
2013-06-06 05:19:00,76.0,61.0,29.74,North,9,0.0,4.0,59,0.00,,,0.00,weatherlink.com 1.10,2013-06-06 10:19:00,
2013-06-06 05:34:00,75.2,60.0,29.74,North,9,0.0,0.0,60,0.00,,,0.00,weatherlink.com 1.10,2013-06-06 10:34:00,
2013-06-06 05:49:00,73.8,60.0,29.73,North,9,0.0,0.0,63,0.00,,,0.00,weatherlink.com 1.10,2013-06-06 10:49:00,
2013-06-06 06:04:00,73.0,60.0,29.73,North,9,0.0,0.0,64,0.00,,,0.00,weatherlink.com 1.10,2013-06-06 11:04:00,
2013-06-06 06:19:00,72.5,60.0,29.73,North,9,0.0,1.0,66,0.00,,,0.00,weatherlink.com 1.10,2013-06-06 11:19:00,
2013-06-06 06:34:00,72.8,60.0,29.73,North,9,1.0,2.0,65,0.00,,,0.00,weatherlink.com 1.10,2013-06-06 11:34:00,
2013-06-06 06:49:00,73.4,60.0,29.74,NNE,26,2.0,7.0,64,0.00,,,0.00,weatherlink.com 1.10,2013-06-06 11:49:00,
2013-06-06 07:04:00,73.3,61.0,29.73,NE,38,6.0,8.0,65,0.00,,,0.00,weatherlink.com 1.10,2013-06-06 12:04:00,
2013-06-06 07:19:00,73.2,61.0,29.73,NE,50,4.0,10.0,65,0.00,,,0.00,weatherlink.com 1.10,2013-06-06 12:19:00,
2013-06-06 07:34:00,73.6,61.0,29.79,NNE,30,7.0,9.0,65,0.00,,,0.00,weatherlink.com 1.10,2013-06-06 12:34:00,
2013-06-06 07:50:00,74.5,61.0,29.78,NE,38,3.0,7.0,64,0.00,,,0.00,weatherlink.com 1.10,2013-06-06 12:50:00,
2013-06-06 08:05:00,75.9,62.0,29.77,East,86,5.0,7.0,62,0.00,,,0.00,weatherlink.com 1.10,2013-06-06 13:05:00,
2013-06-06 08:20:00,77.0,62.0,29.77,ESE,108,3.0,9.0,61,0.00,,,0.00,weatherlink.com 1.10,2013-06-06 13:20:00,
2013-06-06 08:35:00,77.3,62.0,29.80,ENE,62,1.0,5.0,59,0.00,,,0.00,weatherlink.com 1.10,2013-06-06 13:35:00,
2013-06-06 08:50:00,76.8,62.0,29.79,ENE,61,2.0,4.0,60,0.00,,,0.00,weatherlink.com 1.10,2013-06-06 13:50:00,
2013-06-06 09:05:00,76.8,63.0,29.80,ENE,69,1.0,3.0,62,0.00,,,0.00,weatherlink.com 1.10,2013-06-06 14:05:00,
2013-06-06 09:20:00,77.3,63.0,29.75,SSE,150,4.0,9.0,61,0.00,,,0.00,weatherlink.com 1.10,2013-06-06 14:20:00,
2013-06-06 09:35:00,77.6,62.0,29.74,SSE,150,3.0,8.0,59,0.00,,,0.00,weatherlink.com 1.10,2013-06-06 14:35:00,
2013-06-06 09:50:00,79.4,63.0,29.75,SE,140,5.0,6.0,57,0.00,,,0.00,weatherlink.com 1.10,2013-06-06 14:50:00,
2013-06-06 10:05:00,82.4,62.0,29.76,SSE,161,6.0,11.0,51,0.00,,,0.00,weatherlink.com 1.10,2013-06-06 15:05:00,
2013-06-06 10:20:00,84.4,63.0,29.76,SSE,160,3.0,9.0,48,0.00,,,0.00,weatherlink.com 1.10,2013-06-06 15:20:00,
2013-06-06 10:35:00,85.1,63.0,29.76,SSE,163,3.0,9.0,47,0.00,,,0.00,weatherlink.com 1.10,2013-06-06 15:35:00,
2013-06-06 10:50:00,87.2,63.0,29.76,SSE,167,1.0,5.0,44,0.00,,,0.00,weatherlink.com 1.10,2013-06-06 15:50:00,
2013-06-06 11:05:00,88.8,62.0,29.76,SSE,166,1.0,4.0,40,0.00,,,0.00,weatherlink.com 1.10,2013-06-06 16:05:00,
2013-06-06 11:20:00,89.2,63.0,29.76,North,11,2.0,7.0,41,0.00,,,0.00,weatherlink.com 1.10,2013-06-06 16:20:00,
2013-06-06 11:35:00,89.0,63.0,29.75,NNE,25,4.0,12.0,42,0.00,,,0.00,weatherlink.com 1.10,2013-06-06 16:35:00,
2013-06-06 11:50:00,89.3,64.0,29.75,NNE,25,6.0,12.0,43,0.00,,,0.00,weatherlink.com 1.10,2013-06-06 16:50:00,
2013-06-06 12:05:00,88.9,64.0,29.75,NNE,32,9.0,12.0,43,0.00,,,0.00,weatherlink.com 1.10,2013-06-06 17:05:00,
2013-06-06 12:20:00,88.7,63.0,29.75,NNE,26,5.0,11.0,43,0.00,,,0.00,weatherlink.com 1.10,2013-06-06 17:20:00,
2013-06-06 12:35:00,89.2,63.0,29.75,ENE,59,2.0,10.0,42,0.00,,,0.00,weatherlink.com 1.10,2013-06-06 17:35:00,
2013-06-06 12:50:00,89.8,64.0,29.75,NE,47,5.0,9.0,42,0.00,,,0.00,weatherlink.com 1.10,2013-06-06 17:50:00,
2013-06-06 13:05:00,90.2,63.0,29.74,NE,38,0.0,7.0,41,0.00,,,0.00,weatherlink.com 1.10,2013-06-06 18:05:00,
2013-06-06 13:20:00,91.0,64.0,29.74,NNE,31,4.0,9.0,40,0.00,,,0.00,weatherlink.com 1.10,2013-06-06 18:20:00,
2013-06-06 13:35:00,91.0,64.0,29.74,NNE,33,8.0,8.0,40,0.00,,,0.00,weatherlink.com 1.10,2013-06-06 18:35:00,
2013-06-06 13:50:00,91.6,63.0,29.74,NNE,23,1.0,7.0,38,0.00,,,0.00,weatherlink.com 1.10,2013-06-06 18:50:00,
2013-06-06 14:20:00,93.2,63.0,29.73,ENE,57,1.0,9.0,36,0.00,,,0.00,weatherlink.com 1.10,2013-06-06 19:20:00,
2013-06-06 14:35:00,94.0,62.0,29.73,NE,50,4.0,8.0,34,0.00,,,0.00,weatherlink.com 1.10,2013-06-06 19:35:00,
2013-06-06 14:50:00,94.0,61.0,29.72,North,355,1.0,9.0,33,0.00,,,0.00,weatherlink.com 1.10,2013-06-06 19:50:00,
2013-06-06 15:05:00,93.7,60.0,29.72,NE,52,3.0,10.0,32,0.00,,,0.00,weatherlink.com 1.10,2013-06-06 20:05:00,
2013-06-06 15:21:00,94.5,60.0,29.71,NE,43,1.0,8.0,32,0.00,,,0.00,weatherlink.com 1.10,2013-06-06 20:21:00,
2013-06-06 15:36:00,94.7,60.0,29.71,SW,215,0.0,5.0,31,0.00,,,0.00,weatherlink.com 1.10,2013-06-06 20:36:00,
2013-06-06 15:51:00,94.4,59.0,29.70,NNE,13,3.0,11.0,31,0.00,,,0.00,weatherlink.com 1.10,2013-06-06 20:51:00,
2013-06-06 16:06:00,95.0,61.0,29.70,NNE,27,5.0,8.0,32,0.00,,,0.00,weatherlink.com 1.10,2013-06-06 21:06:00,
2013-06-06 16:21:00,95.8,60.0,29.69,NE,41,3.0,7.0,30,0.00,,,0.00,weatherlink.com 1.10,2013-06-06 21:21:00,
2013-06-06 16:36:00,95.9,60.0,29.68,NNE,16,7.0,11.0,30,0.00,,,0.00,weatherlink.com 1.10,2013-06-06 21:36:00,
2013-06-06 16:51:00,95.0,62.0,29.68,NE,36,4.0,13.0,33,0.00,,,0.00,weatherlink.com 1.10,2013-06-06 21:51:00,
2013-06-06 17:06:00,94.6,62.0,29.68,NE,54,4.0,11.0,34,0.00,,,0.00,weatherlink.com 1.10,2013-06-06 22:06:00,
2013-06-06 17:21:00,94.3,63.0,29.68,NNE,19,7.0,13.0,36,0.00,,,0.00,weatherlink.com 1.10,2013-06-06 22:21:00,
2013-06-06 17:36:00,92.2,63.0,29.68,NE,42,8.0,12.0,38,0.00,,,0.00,weatherlink.com 1.10,2013-06-06 22:36:00,
2013-06-06 17:51:00,90.8,63.0,29.68,NNE,32,3.0,10.0,40,0.00,,,0.00,weatherlink.com 1.10,2013-06-06 22:51:00,
2013-06-06 18:06:00,91.3,63.0,29.68,NNE,18,5.0,13.0,39,0.00,,,0.00,weatherlink.com 1.10,2013-06-06 23:06:00,
2013-06-06 18:21:00,91.5,64.0,29.68,North,5,11.0,14.0,40,0.00,,,0.00,weatherlink.com 1.10,2013-06-06 23:21:00,
2013-06-06 18:36:00,90.1,64.0,29.68,NNE,32,5.0,14.0,42,0.00,,,0.00,weatherlink.com 1.10,2013-06-06 23:36:00,
2013-06-06 18:51:00,89.6,64.0,29.68,NNE,28,8.0,14.0,43,0.00,,,0.00,weatherlink.com 1.10,2013-06-06 23:51:00,
2013-06-06 19:06:00,88.8,64.0,29.68,NNE,24,7.0,13.0,44,0.00,,,0.00,weatherlink.com 1.10,2013-06-07 00:06:00,
2013-06-06 19:21:00,87.9,64.0,29.69,NE,39,11.0,11.0,45,0.00,,,0.00,weatherlink.com 1.10,2013-06-07 00:21:00,
2013-06-06 19:36:00,87.0,63.0,29.70,NE,41,4.0,11.0,45,0.00,,,0.00,weatherlink.com 1.10,2013-06-07 00:36:00,
2013-06-06 19:51:00,86.0,63.0,29.70,NNE,19,5.0,14.0,47,0.00,,,0.00,weatherlink.com 1.10,2013-06-07 00:51:00,
2013-06-06 20:06:00,84.5,63.0,29.71,NE,40,9.0,16.0,48,0.00,,,0.00,weatherlink.com 1.10,2013-06-07 01:06:00,
2013-06-06 20:21:00,83.5,63.0,29.72,NNE,19,10.0,12.0,50,0.00,,,0.00,weatherlink.com 1.10,2013-06-07 01:21:00,
2013-06-06 20:36:00,82.7,62.0,29.73,NE,40,6.0,12.0,50,0.00,,,0.00,weatherlink.com 1.10,2013-06-07 01:36:00,
2013-06-06 20:51:00,81.7,62.0,29.74,ENE,69,4.0,14.0,51,0.00,,,0.00,weatherlink.com 1.10,2013-06-07 01:51:00,
2013-06-06 21:06:00,81.1,62.0,29.75,NNE,19,7.0,8.0,52,0.00,,,0.00,weatherlink.com 1.10,2013-06-07 02:06:00,
2013-06-06 21:21:00,80.5,61.0,29.75,NNE,23,7.0,9.0,52,0.00,,,0.00,weatherlink.com 1.10,2013-06-07 02:21:00,
2013-06-06 21:36:00,80.0,61.0,29.76,NE,47,7.0,11.0,53,0.00,,,0.00,weatherlink.com 1.10,2013-06-07 02:36:00,
2013-06-06 21:51:00,79.4,62.0,29.77,NE,38,8.0,13.0,55,0.00,,,0.00,weatherlink.com 1.10,2013-06-07 02:51:00,
2013-06-06 22:21:00,78.2,62.0,29.79,ENE,69,4.0,7.0,57,0.00,,,0.00,weatherlink.com 1.10,2013-06-07 03:21:00,
2013-06-06 22:36:00,77.8,62.0,29.80,NE,50,2.0,7.0,58,0.00,,,0.00,weatherlink.com 1.10,2013-06-07 03:36:00,
2013-06-06 22:51:00,77.2,62.0,29.81,NE,55,2.0,10.0,59,0.00,,,0.00,weatherlink.com 1.10,2013-06-07 03:51:00,
2013-06-06 23:06:00,76.6,62.0,29.82,NE,53,3.0,6.0,60,0.00,,,0.00,weatherlink.com 1.10,2013-06-07 04:06:00,
2013-06-06 23:21:00,76.2,62.0,29.82,ENE,57,0.0,6.0,61,0.00,,,0.00,weatherlink.com 1.10,2013-06-07 04:21:00,
2013-06-06 23:36:00,75.8,61.0,29.83,ENE,65,1.0,4.0,61,0.00,,,0.00,weatherlink.com 1.10,2013-06-07 04:36:00,
2013-06-06 23:51:00,75.4,62.0,29.83,East,88,1.0,7.0,64,0.00,,,0.00,weatherlink.com 1.10,2013-06-07 04:51:00,